sensor_id;sensor_type;location;lat;lon;timestamp;pressure;altitude;pressure_sealevel;temperature;humidity
73952;BME280;62304;47.662;18.324;2022-10-16T00:02:44;100666.25;;;14.77;69.29
73952;BME280;62304;47.662;18.324;2022-10-16T00:05:51;100670.25;;;14.76;69.23
73952;BME280;62304;47.662;18.324;2022-10-16T00:08:55;100667.03;;;14.71;69.44
73952;BME280;62304;47.662;18.324;2022-10-16T00:11:58;100668.59;;;14.65;69.72
73952;BME280;62304;47.662;18.324;2022-10-16T00:15:01;100666.56;;;14.58;69.82
73952;BME280;62304;47.662;18.324;2022-10-16T00:18:04;100665.72;;;14.54;70.32
73952;BME280;62304;47.662;18.324;2022-10-16T00:21:11;100667.31;;;14.55;70.06
73952;BME280;62304;47.662;18.324;2022-10-16T00:24:15;100666.53;;;14.51;70.07
73952;BME280;62304;47.662;18.324;2022-10-16T00:27:17;100674.47;;;14.49;70.36
73952;BME280;62304;47.662;18.324;2022-10-16T00:30:20;100674.81;;;14.44;70.41
73952;BME280;62304;47.662;18.324;2022-10-16T00:33:23;100669.66;;;14.43;70.09
73952;BME280;62304;47.662;18.324;2022-10-16T00:36:27;100673.94;;;14.33;70.70
73952;BME280;62304;47.662;18.324;2022-10-16T00:39:29;100681.53;;;14.33;70.51
73952;BME280;62304;47.662;18.324;2022-10-16T00:42:33;100679.88;;;14.28;70.72
73952;BME280;62304;47.662;18.324;2022-10-16T00:45:36;100681.50;;;14.26;71.02
73952;BME280;62304;47.662;18.324;2022-10-16T00:48:40;100687.44;;;14.21;70.98
73952;BME280;62304;47.662;18.324;2022-10-16T00:51:47;100689.41;;;14.20;70.91
73952;BME280;62304;47.662;18.324;2022-10-16T00:54:54;100692.59;;;14.22;71.01
73952;BME280;62304;47.662;18.324;2022-10-16T00:57:57;100696.12;;;14.16;71.08
73952;BME280;62304;47.662;18.324;2022-10-16T01:01:00;100683.75;;;14.13;71.29
73952;BME280;62304;47.662;18.324;2022-10-16T01:04:03;100687.25;;;14.07;71.37
73952;BME280;62304;47.662;18.324;2022-10-16T01:10:38;100683.59;;;13.99;72.06
73952;BME280;62304;47.662;18.324;2022-10-16T01:13:47;100683.56;;;13.96;72.16
73952;BME280;62304;47.662;18.324;2022-10-16T01:17:00;100691.88;;;13.89;72.14
73952;BME280;62304;47.662;18.324;2022-10-16T01:20:26;100687.91;;;13.90;72.16
73952;BME280;62304;47.662;18.324;2022-10-16T01:30:21;100684.56;;;13.74;72.96
73952;BME280;62304;47.662;18.324;2022-10-16T01:33:38;100683.00;;;13.76;72.60
73952;BME280;62304;47.662;18.324;2022-10-16T01:36:51;100692.50;;;13.72;72.90
73952;BME280;62304;47.662;18.324;2022-10-16T01:39:58;100695.28;;;13.72;72.89
73952;BME280;62304;47.662;18.324;2022-10-16T01:43:07;100698.88;;;13.72;72.88
73952;BME280;62304;47.662;18.324;2022-10-16T01:46:13;100702.16;;;13.81;72.64
73952;BME280;62304;47.662;18.324;2022-10-16T01:49:20;100703.00;;;13.85;71.75
73952;BME280;62304;47.662;18.324;2022-10-16T01:52:26;100705.81;;;13.89;71.91
73952;BME280;62304;47.662;18.324;2022-10-16T01:55:33;100721.00;;;13.95;72.00
73952;BME280;62304;47.662;18.324;2022-10-16T01:59:02;100723.75;;;13.88;72.11
73952;BME280;62304;47.662;18.324;2022-10-16T02:02:09;100717.75;;;13.89;71.89
73952;BME280;62304;47.662;18.324;2022-10-16T02:05:23;100723.28;;;13.82;72.67
73952;BME280;62304;47.662;18.324;2022-10-16T02:08:30;100724.91;;;13.50;72.99
73952;BME280;62304;47.662;18.324;2022-10-16T02:11:35;100735.22;;;13.46;73.88
73952;BME280;62304;47.662;18.324;2022-10-16T02:14:39;100724.34;;;13.05;74.96
73952;BME280;62304;47.662;18.324;2022-10-16T02:17:42;100726.28;;;13.01;75.18
73952;BME280;62304;47.662;18.324;2022-10-16T02:21:00;100734.59;;;12.97;75.26
73952;BME280;62304;47.662;18.324;2022-10-16T02:27:20;100736.88;;;12.95;75.57
73952;BME280;62304;47.662;18.324;2022-10-16T02:30:30;100737.38;;;12.97;75.01
73952;BME280;62304;47.662;18.324;2022-10-16T02:33:35;100748.19;;;13.02;75.07
73952;BME280;62304;47.662;18.324;2022-10-16T02:36:41;100746.75;;;13.15;75.03
73952;BME280;62304;47.662;18.324;2022-10-16T02:39:45;100751.50;;;13.15;74.87
73952;BME280;62304;47.662;18.324;2022-10-16T02:42:50;100753.50;;;13.14;74.83
73952;BME280;62304;47.662;18.324;2022-10-16T02:45:53;100760.34;;;13.20;73.94
73952;BME280;62304;47.662;18.324;2022-10-16T02:48:56;100755.44;;;13.10;73.98
73952;BME280;62304;47.662;18.324;2022-10-16T02:51:59;100740.66;;;13.06;74.88
73952;BME280;62304;47.662;18.324;2022-10-16T02:55:02;100753.84;;;13.09;73.57
73952;BME280;62304;47.662;18.324;2022-10-16T02:58:05;100759.31;;;13.02;74.32
73952;BME280;62304;47.662;18.324;2022-10-16T03:01:08;100761.34;;;13.05;74.88
73952;BME280;62304;47.662;18.324;2022-10-16T03:04:11;100766.03;;;13.01;74.65
73952;BME280;62304;47.662;18.324;2022-10-16T03:07:14;100761.59;;;12.97;74.71
73952;BME280;62304;47.662;18.324;2022-10-16T03:10:17;100773.41;;;12.64;75.40
73952;BME280;62304;47.662;18.324;2022-10-16T03:13:20;100775.44;;;12.41;76.71
73952;BME280;62304;47.662;18.324;2022-10-16T03:16:23;100764.78;;;12.24;77.10
73952;BME280;62304;47.662;18.324;2022-10-16T03:19:26;100776.09;;;12.12;78.09
73952;BME280;62304;47.662;18.324;2022-10-16T03:22:28;100769.91;;;12.22;77.22
73952;BME280;62304;47.662;18.324;2022-10-16T03:25:32;100769.19;;;12.25;76.76
73952;BME280;62304;47.662;18.324;2022-10-16T03:28:34;100774.75;;;12.25;77.17
73952;BME280;62304;47.662;18.324;2022-10-16T03:31:38;100781.47;;;12.24;77.46
73952;BME280;62304;47.662;18.324;2022-10-16T03:34:41;100779.50;;;12.25;76.91
73952;BME280;62304;47.662;18.324;2022-10-16T03:37:44;100787.91;;;12.28;76.85
73952;BME280;62304;47.662;18.324;2022-10-16T03:40:47;100779.75;;;12.16;76.56
73952;BME280;62304;47.662;18.324;2022-10-16T03:43:49;100790.75;;;12.09;77.18
73952;BME280;62304;47.662;18.324;2022-10-16T03:46:52;100787.75;;;11.99;77.80
73952;BME280;62304;47.662;18.324;2022-10-16T03:49:55;100780.13;;;11.73;79.01
73952;BME280;62304;47.662;18.324;2022-10-16T03:52:58;100782.06;;;11.54;79.63
73952;BME280;62304;47.662;18.324;2022-10-16T03:56:01;100786.84;;;11.53;79.94
73952;BME280;62304;47.662;18.324;2022-10-16T03:59:03;100778.41;;;11.31;80.48
73952;BME280;62304;47.662;18.324;2022-10-16T04:02:06;100780.22;;;11.23;81.02
73952;BME280;62304;47.662;18.324;2022-10-16T04:05:10;100784.56;;;11.40;79.96
73952;BME280;62304;47.662;18.324;2022-10-16T04:08:13;100779.94;;;11.47;78.96
73952;BME280;62304;47.662;18.324;2022-10-16T04:11:17;100784.78;;;11.50;78.92
73952;BME280;62304;47.662;18.324;2022-10-16T04:14:20;100784.78;;;11.31;80.51
73952;BME280;62304;47.662;18.324;2022-10-16T04:17:22;100784.34;;;11.29;80.29
73952;BME280;62304;47.662;18.324;2022-10-16T04:20:26;100790.91;;;11.21;80.71
73952;BME280;62304;47.662;18.324;2022-10-16T04:23:32;100788.28;;;11.28;80.17
73952;BME280;62304;47.662;18.324;2022-10-16T04:26:36;100789.16;;;11.51;79.93
73952;BME280;62304;47.662;18.324;2022-10-16T04:29:39;100787.28;;;11.55;79.28
73952;BME280;62304;47.662;18.324;2022-10-16T04:32:42;100786.59;;;11.43;80.35
73952;BME280;62304;47.662;18.324;2022-10-16T04:35:45;100786.16;;;11.22;81.50
73952;BME280;62304;47.662;18.324;2022-10-16T04:38:48;100775.56;;;11.27;80.59
73952;BME280;62304;47.662;18.324;2022-10-16T04:41:51;100788.12;;;11.40;78.80
73952;BME280;62304;47.662;18.324;2022-10-16T04:44:53;100782.37;;;11.30;79.50
73952;BME280;62304;47.662;18.324;2022-10-16T04:47:58;100786.06;;;11.18;80.47
73952;BME280;62304;47.662;18.324;2022-10-16T04:51:03;100798.28;;;11.33;80.09
73952;BME280;62304;47.662;18.324;2022-10-16T04:54:06;100792.44;;;11.38;79.56
73952;BME280;62304;47.662;18.324;2022-10-16T04:57:09;100792.50;;;11.41;80.03
73952;BME280;62304;47.662;18.324;2022-10-16T05:00:12;100804.22;;;11.50;79.29
73952;BME280;62304;47.662;18.324;2022-10-16T05:03:15;100812.25;;;11.36;79.62
73952;BME280;62304;47.662;18.324;2022-10-16T05:06:18;100800.84;;;11.22;80.45
73952;BME280;62304;47.662;18.324;2022-10-16T05:09:21;100808.97;;;10.96;80.58
73952;BME280;62304;47.662;18.324;2022-10-16T05:12:24;100816.97;;;10.82;81.29
73952;BME280;62304;47.662;18.324;2022-10-16T05:15:27;100817.13;;;10.89;80.68
73952;BME280;62304;47.662;18.324;2022-10-16T05:18:34;100815.81;;;10.83;81.05
73952;BME280;62304;47.662;18.324;2022-10-16T05:21:38;100816.34;;;10.73;81.92
73952;BME280;62304;47.662;18.324;2022-10-16T05:24:41;100830.22;;;10.73;82.51
73952;BME280;62304;47.662;18.324;2022-10-16T05:27:47;100830.22;;;10.73;81.72
73952;BME280;62304;47.662;18.324;2022-10-16T05:30:51;100823.53;;;10.59;82.95
73952;BME280;62304;47.662;18.324;2022-10-16T05:33:58;100829.06;;;10.59;82.76
73952;BME280;62304;47.662;18.324;2022-10-16T05:37:01;100827.88;;;10.75;82.62
73952;BME280;62304;47.662;18.324;2022-10-16T05:40:04;100846.38;;;11.02;81.95
73952;BME280;62304;47.662;18.324;2022-10-16T05:43:08;100859.97;;;11.07;81.47
73952;BME280;62304;47.662;18.324;2022-10-16T05:46:11;100859.00;;;11.15;81.02
73952;BME280;62304;47.662;18.324;2022-10-16T05:49:14;100858.94;;;10.96;82.34
73952;BME280;62304;47.662;18.324;2022-10-16T05:52:17;100853.84;;;10.98;82.47
73952;BME280;62304;47.662;18.324;2022-10-16T05:55:20;100855.59;;;11.06;81.72
73952;BME280;62304;47.662;18.324;2022-10-16T05:58:25;100851.44;;;11.50;80.65
73952;BME280;62304;47.662;18.324;2022-10-16T06:01:31;100857.72;;;11.82;79.94
73952;BME280;62304;47.662;18.324;2022-10-16T06:04:35;100876.44;;;11.85;80.01
73952;BME280;62304;47.662;18.324;2022-10-16T06:07:37;100878.94;;;11.90;79.95
73952;BME280;62304;47.662;18.324;2022-10-16T06:10:40;100879.12;;;12.00;79.87
73952;BME280;62304;47.662;18.324;2022-10-16T06:13:43;100881.50;;;12.40;80.18
73952;BME280;62304;47.662;18.324;2022-10-16T06:16:48;100885.00;;;13.27;77.14
73952;BME280;62304;47.662;18.324;2022-10-16T06:19:51;100884.37;;;13.66;74.76
73952;BME280;62304;47.662;18.324;2022-10-16T06:22:54;100882.06;;;13.42;75.29
73952;BME280;62304;47.662;18.324;2022-10-16T06:26:07;100868.88;;;13.13;75.90
73952;BME280;62304;47.662;18.324;2022-10-16T06:29:10;100875.31;;;12.95;76.24
73952;BME280;62304;47.662;18.324;2022-10-16T06:32:14;100880.84;;;12.91;77.01
73952;BME280;62304;47.662;18.324;2022-10-16T06:35:17;100887.13;;;12.88;76.63
73952;BME280;62304;47.662;18.324;2022-10-16T06:38:20;100883.66;;;12.95;76.45
73952;BME280;62304;47.662;18.324;2022-10-16T06:41:23;100895.41;;;13.07;75.47
73952;BME280;62304;47.662;18.324;2022-10-16T06:44:26;100904.44;;;13.23;74.50
73952;BME280;62304;47.662;18.324;2022-10-16T06:47:28;100908.00;;;13.46;73.85
73952;BME280;62304;47.662;18.324;2022-10-16T06:50:31;100911.34;;;13.59;73.42
73952;BME280;62304;47.662;18.324;2022-10-16T06:53:36;100912.00;;;13.78;73.44
73952;BME280;62304;47.662;18.324;2022-10-16T06:56:45;100918.44;;;13.82;72.97
73952;BME280;62304;47.662;18.324;2022-10-16T06:59:48;100921.75;;;13.91;73.96
73952;BME280;62304;47.662;18.324;2022-10-16T07:02:56;100919.13;;;14.05;71.77
73952;BME280;62304;47.662;18.324;2022-10-16T07:06:03;100915.37;;;14.20;70.44
73952;BME280;62304;47.662;18.324;2022-10-16T07:09:09;100931.06;;;14.32;69.13
73952;BME280;62304;47.662;18.324;2022-10-16T07:12:12;100938.75;;;14.42;69.42
73952;BME280;62304;47.662;18.324;2022-10-16T07:15:15;100948.84;;;14.53;68.95
73952;BME280;62304;47.662;18.324;2022-10-16T07:18:18;100946.91;;;14.57;67.67
73952;BME280;62304;47.662;18.324;2022-10-16T07:21:22;100942.25;;;14.68;67.59
73952;BME280;62304;47.662;18.324;2022-10-16T07:24:25;100949.53;;;14.80;67.12
73952;BME280;62304;47.662;18.324;2022-10-16T07:27:28;100934.50;;;14.91;66.90
73952;BME280;62304;47.662;18.324;2022-10-16T07:30:35;100940.19;;;15.05;66.33
73952;BME280;62304;47.662;18.324;2022-10-16T07:33:42;100939.06;;;15.13;65.81
73952;BME280;62304;47.662;18.324;2022-10-16T07:36:50;100949.13;;;15.21;65.47
73952;BME280;62304;47.662;18.324;2022-10-16T07:39:53;100946.88;;;15.37;65.38
73952;BME280;62304;47.662;18.324;2022-10-16T07:42:56;100955.03;;;15.56;65.02
73952;BME280;62304;47.662;18.324;2022-10-16T07:45:59;100965.84;;;15.61;64.36
73952;BME280;62304;47.662;18.324;2022-10-16T07:49:10;100959.09;;;15.69;63.78
73952;BME280;62304;47.662;18.324;2022-10-16T07:52:14;100962.37;;;15.82;64.18
73952;BME280;62304;47.662;18.324;2022-10-16T07:55:17;100966.06;;;15.96;64.24
73952;BME280;62304;47.662;18.324;2022-10-16T07:58:19;100969.72;;;16.07;63.36
73952;BME280;62304;47.662;18.324;2022-10-16T08:01:24;100972.97;;;16.16;63.27
73952;BME280;62304;47.662;18.324;2022-10-16T08:04:30;100988.59;;;16.28;61.98
73952;BME280;62304;47.662;18.324;2022-10-16T08:07:33;100983.84;;;16.35;61.81
73952;BME280;62304;47.662;18.324;2022-10-16T08:10:36;100988.66;;;16.38;62.15
73952;BME280;62304;47.662;18.324;2022-10-16T08:13:39;100993.13;;;16.46;62.43
73952;BME280;62304;47.662;18.324;2022-10-16T08:16:42;100999.97;;;16.59;62.39
73952;BME280;62304;47.662;18.324;2022-10-16T08:19:47;101002.44;;;16.71;61.04
73952;BME280;62304;47.662;18.324;2022-10-16T08:22:53;101008.06;;;16.89;61.16
73952;BME280;62304;47.662;18.324;2022-10-16T08:26:02;101003.72;;;17.12;60.28
73952;BME280;62304;47.662;18.324;2022-10-16T08:29:06;101005.34;;;17.27;59.72
73952;BME280;62304;47.662;18.324;2022-10-16T08:32:08;101012.59;;;17.56;58.90
73952;BME280;62304;47.662;18.324;2022-10-16T08:35:12;101015.72;;;18.07;57.85
73952;BME280;62304;47.662;18.324;2022-10-16T08:38:15;101015.22;;;18.54;55.71
73952;BME280;62304;47.662;18.324;2022-10-16T08:41:46;101019.25;;;19.18;53.50
73952;BME280;62304;47.662;18.324;2022-10-16T08:48:17;101016.00;;;21.15;48.33
73952;BME280;62304;47.662;18.324;2022-10-16T08:51:36;101028.56;;;21.10;48.38
73952;BME280;62304;47.662;18.324;2022-10-16T08:54:55;101019.50;;;21.75;46.19
73952;BME280;62304;47.662;18.324;2022-10-16T08:57:59;101017.69;;;21.35;46.18
73952;BME280;62304;47.662;18.324;2022-10-16T09:01:13;101022.12;;;21.10;46.89
73952;BME280;62304;47.662;18.324;2022-10-16T09:11:21;101010.91;;;22.25;43.89
73952;BME280;62304;47.662;18.324;2022-10-16T09:15:00;101011.19;;;22.11;44.88
73952;BME280;62304;47.662;18.324;2022-10-16T09:18:58;101010.78;;;23.26;41.70
73952;BME280;62304;47.662;18.324;2022-10-16T09:21:43;101009.19;;;23.25;41.67
73952;BME280;62304;47.662;18.324;2022-10-16T09:24:46;101011.00;;;23.15;41.36
73952;BME280;62304;47.662;18.324;2022-10-16T09:27:52;101011.91;;;22.34;43.44
73952;BME280;62304;47.662;18.324;2022-10-16T09:30:55;101008.34;;;23.92;41.37
73952;BME280;62304;47.662;18.324;2022-10-16T09:34:00;101010.09;;;23.54;40.44
73952;BME280;62304;47.662;18.324;2022-10-16T09:37:12;101019.75;;;23.56;40.75
73952;BME280;62304;47.662;18.324;2022-10-16T09:46:39;101027.78;;;23.74;39.88
73952;BME280;62304;47.662;18.324;2022-10-16T09:49:55;101025.28;;;24.24;40.10
73952;BME280;62304;47.662;18.324;2022-10-16T09:53:11;101029.87;;;24.18;39.92
73952;BME280;62304;47.662;18.324;2022-10-16T09:59:31;101024.59;;;24.77;38.73
73952;BME280;62304;47.662;18.324;2022-10-16T10:02:35;101012.44;;;24.48;38.67
73952;BME280;62304;47.662;18.324;2022-10-16T10:05:40;101019.91;;;24.70;38.55
73952;BME280;62304;47.662;18.324;2022-10-16T10:09:02;101021.88;;;24.29;39.39
73952;BME280;62304;47.662;18.324;2022-10-16T10:12:23;101027.22;;;24.27;38.53
73952;BME280;62304;47.662;18.324;2022-10-16T10:15:33;101026.78;;;24.28;38.58
73952;BME280;62304;47.662;18.324;2022-10-16T10:18:37;101022.00;;;24.54;38.21
73952;BME280;62304;47.662;18.324;2022-10-16T10:21:40;101041.56;;;24.36;39.27
73952;BME280;62304;47.662;18.324;2022-10-16T10:24:53;101027.69;;;24.82;38.28
73952;BME280;62304;47.662;18.324;2022-10-16T10:31:46;101025.00;;;23.22;40.92
73952;BME280;62304;47.662;18.324;2022-10-16T10:45:21;101005.34;;;24.97;38.52
73952;BME280;62304;47.662;18.324;2022-10-16T10:54:56;100994.44;;;25.08;37.88
73952;BME280;62304;47.662;18.324;2022-10-16T11:01:57;101007.28;;;25.50;36.89
73952;BME280;62304;47.662;18.324;2022-10-16T11:05:28;101013.69;;;25.88;36.22
73952;BME280;62304;47.662;18.324;2022-10-16T11:08:43;101011.91;;;25.06;37.70
73952;BME280;62304;47.662;18.324;2022-10-16T11:18:29;101004.66;;;25.68;36.61
73952;BME280;62304;47.662;18.324;2022-10-16T11:21:49;101006.03;;;25.51;36.54
73952;BME280;62304;47.662;18.324;2022-10-16T11:25:26;101005.53;;;25.90;36.14
73952;BME280;62304;47.662;18.324;2022-10-16T11:28:34;101019.25;;;24.79;38.18
73952;BME280;62304;47.662;18.324;2022-10-16T11:31:43;101001.34;;;24.53;38.23
73952;BME280;62304;47.662;18.324;2022-10-16T11:34:57;101006.91;;;25.23;37.25
73952;BME280;62304;47.662;18.324;2022-10-16T11:38:03;101020.37;;;23.48;40.85
73952;BME280;62304;47.662;18.324;2022-10-16T11:41:24;101011.19;;;24.49;38.79
73952;BME280;62304;47.662;18.324;2022-10-16T11:47:58;100999.66;;;24.97;37.44
73952;BME280;62304;47.662;18.324;2022-10-16T11:54:38;100984.47;;;25.41;36.55
73952;BME280;62304;47.662;18.324;2022-10-16T11:57:54;100972.53;;;24.26;38.43
73952;BME280;62304;47.662;18.324;2022-10-16T12:07:23;100979.41;;;25.70;36.39
73952;BME280;62304;47.662;18.324;2022-10-16T12:10:29;100974.78;;;26.10;36.02
73952;BME280;62304;47.662;18.324;2022-10-16T12:13:44;100981.63;;;26.00;35.76
73952;BME280;62304;47.662;18.324;2022-10-16T12:16:56;100976.97;;;25.34;37.22
73952;BME280;62304;47.662;18.324;2022-10-16T12:20:18;100967.50;;;24.87;38.11
73952;BME280;62304;47.662;18.324;2022-10-16T12:23:22;100982.41;;;25.04;37.59
73952;BME280;62304;47.662;18.324;2022-10-16T12:26:38;100975.87;;;25.78;36.61
73952;BME280;62304;47.662;18.324;2022-10-16T12:29:42;100980.72;;;25.31;36.38
73952;BME280;62304;47.662;18.324;2022-10-16T12:32:53;100974.66;;;25.17;37.73
73952;BME280;62304;47.662;18.324;2022-10-16T12:36:08;100979.41;;;25.70;36.36
73952;BME280;62304;47.662;18.324;2022-10-16T12:39:33;100974.62;;;25.67;36.61
73952;BME280;62304;47.662;18.324;2022-10-16T12:42:36;100982.63;;;24.97;37.62
73952;BME280;62304;47.662;18.324;2022-10-16T12:45:39;100993.03;;;24.18;39.01
73952;BME280;62304;47.662;18.324;2022-10-16T12:48:43;100997.78;;;24.78;38.63
73952;BME280;62304;47.662;18.324;2022-10-16T12:52:27;100991.53;;;24.70;38.67
73952;BME280;62304;47.662;18.324;2022-10-16T12:55:42;100989.41;;;24.87;37.74
73952;BME280;62304;47.662;18.324;2022-10-16T12:58:56;100990.31;;;24.71;38.43
73952;BME280;62304;47.662;18.324;2022-10-16T13:15:28;100994.06;;;24.24;39.91
73952;BME280;62304;47.662;18.324;2022-10-16T13:22:26;101013.28;;;23.56;41.19
73952;BME280;62304;47.662;18.324;2022-10-16T13:28:43;101016.09;;;22.49;43.40
73952;BME280;62304;47.662;18.324;2022-10-16T13:31:48;101008.03;;;22.05;44.45
73952;BME280;62304;47.662;18.324;2022-10-16T13:34:51;101011.94;;;21.69;45.36
73952;BME280;62304;47.662;18.324;2022-10-16T13:41:16;101013.13;;;21.18;46.82
73952;BME280;62304;47.662;18.324;2022-10-16T13:44:20;101015.09;;;20.95;47.59
73952;BME280;62304;47.662;18.324;2022-10-16T13:47:28;101012.75;;;20.90;47.71
73952;BME280;62304;47.662;18.324;2022-10-16T13:50:32;101005.00;;;20.64;48.86
73952;BME280;62304;47.662;18.324;2022-10-16T13:53:38;101009.31;;;20.72;48.19
73952;BME280;62304;47.662;18.324;2022-10-16T13:56:41;101009.00;;;20.66;48.45
73952;BME280;62304;47.662;18.324;2022-10-16T13:59:44;101008.66;;;20.61;48.58
73952;BME280;62304;47.662;18.324;2022-10-16T14:02:55;101012.34;;;20.58;48.78
73952;BME280;62304;47.662;18.324;2022-10-16T14:06:02;101023.75;;;20.48;49.46
73952;BME280;62304;47.662;18.324;2022-10-16T14:09:28;101032.22;;;20.44;49.84
73952;BME280;62304;47.662;18.324;2022-10-16T14:12:34;101025.41;;;20.45;49.35
73952;BME280;62304;47.662;18.324;2022-10-16T14:15:37;101022.72;;;20.31;49.91
73952;BME280;62304;47.662;18.324;2022-10-16T14:18:40;101026.78;;;20.30;49.90
73952;BME280;62304;47.662;18.324;2022-10-16T14:21:42;101032.50;;;20.23;49.95
73952;BME280;62304;47.662;18.324;2022-10-16T14:24:46;101035.31;;;20.23;50.10
73952;BME280;62304;47.662;18.324;2022-10-16T14:28:22;101035.44;;;20.09;50.30
73952;BME280;62304;47.662;18.324;2022-10-16T14:31:32;101042.25;;;20.12;50.22
73952;BME280;62304;47.662;18.324;2022-10-16T14:34:37;101047.50;;;20.06;50.73
73952;BME280;62304;47.662;18.324;2022-10-16T14:37:43;101058.81;;;20.02;50.48
73952;BME280;62304;47.662;18.324;2022-10-16T14:40:48;101048.75;;;20.01;51.16
73952;BME280;62304;47.662;18.324;2022-10-16T14:43:57;101058.84;;;19.99;51.00
73952;BME280;62304;47.662;18.324;2022-10-16T14:47:08;101058.09;;;19.91;51.19
73952;BME280;62304;47.662;18.324;2022-10-16T14:50:12;101056.50;;;19.90;51.72
73952;BME280;62304;47.662;18.324;2022-10-16T14:53:15;101055.72;;;19.90;51.53
73952;BME280;62304;47.662;18.324;2022-10-16T14:56:23;101047.31;;;19.83;51.54
73952;BME280;62304;47.662;18.324;2022-10-16T14:59:36;101049.03;;;19.73;52.12
73952;BME280;62304;47.662;18.324;2022-10-16T15:02:40;101061.91;;;19.71;51.86
73952;BME280;62304;47.662;18.324;2022-10-16T15:05:44;101053.91;;;19.66;51.86
73952;BME280;62304;47.662;18.324;2022-10-16T15:08:47;101053.94;;;19.62;51.83
73952;BME280;62304;47.662;18.324;2022-10-16T15:11:50;101047.97;;;19.57;52.21
73952;BME280;62304;47.662;18.324;2022-10-16T15:14:53;101038.34;;;19.51;52.27
73952;BME280;62304;47.662;18.324;2022-10-16T15:17:56;101048.06;;;19.43;52.91
73952;BME280;62304;47.662;18.324;2022-10-16T15:20:59;101053.75;;;19.36;52.95
73952;BME280;62304;47.662;18.324;2022-10-16T15:24:08;101055.41;;;19.30;52.96
73952;BME280;62304;47.662;18.324;2022-10-16T15:27:19;101058.66;;;19.22;53.29
73952;BME280;62304;47.662;18.324;2022-10-16T15:30:22;101069.12;;;19.14;53.65
73952;BME280;62304;47.662;18.324;2022-10-16T15:33:26;101072.38;;;19.06;54.29
73952;BME280;62304;47.662;18.324;2022-10-16T15:36:41;101070.81;;;18.94;54.96
73952;BME280;62304;47.662;18.324;2022-10-16T15:39:44;101078.13;;;18.81;55.38
73952;BME280;62304;47.662;18.324;2022-10-16T15:42:47;101076.56;;;18.70;55.76
73952;BME280;62304;47.662;18.324;2022-10-16T15:46:02;101076.19;;;18.57;57.13
73952;BME280;62304;47.662;18.324;2022-10-16T15:49:05;101084.69;;;18.43;57.15
73952;BME280;62304;47.662;18.324;2022-10-16T15:52:09;101088.72;;;18.32;57.34
73952;BME280;62304;47.662;18.324;2022-10-16T15:55:13;101091.50;;;18.21;57.58
73952;BME280;62304;47.662;18.324;2022-10-16T15:58:17;101093.53;;;18.10;58.11
73952;BME280;62304;47.662;18.324;2022-10-16T16:01:21;101096.75;;;17.98;58.36
73952;BME280;62304;47.662;18.324;2022-10-16T16:04:24;101099.16;;;17.82;59.00
73952;BME280;62304;47.662;18.324;2022-10-16T16:07:45;101099.56;;;17.74;59.49
73952;BME280;62304;47.662;18.324;2022-10-16T16:11:00;101098.72;;;17.56;60.26
73952;BME280;62304;47.662;18.324;2022-10-16T16:14:04;101105.16;;;17.42;60.73
73952;BME280;62304;47.662;18.324;2022-10-16T16:17:07;101106.28;;;17.34;61.09
73952;BME280;62304;47.662;18.324;2022-10-16T16:20:11;101116.69;;;17.27;61.27
73952;BME280;62304;47.662;18.324;2022-10-16T16:23:14;101109.47;;;17.22;61.48
73952;BME280;62304;47.662;18.324;2022-10-16T16:26:28;101123.09;;;17.20;61.53
73952;BME280;62304;47.662;18.324;2022-10-16T16:29:36;101132.72;;;17.26;61.54
73952;BME280;62304;47.662;18.324;2022-10-16T16:32:38;101127.50;;;17.21;61.36
73952;BME280;62304;47.662;18.324;2022-10-16T16:35:42;101133.88;;;17.25;61.32
73952;BME280;62304;47.662;18.324;2022-10-16T16:38:45;101141.53;;;17.28;61.28
73952;BME280;62304;47.662;18.324;2022-10-16T16:41:49;101143.50;;;17.28;61.26
73952;BME280;62304;47.662;18.324;2022-10-16T16:44:52;101142.28;;;17.15;61.62
73952;BME280;62304;47.662;18.324;2022-10-16T16:47:55;101156.75;;;17.24;61.21
73952;BME280;62304;47.662;18.324;2022-10-16T16:51:06;101161.50;;;17.13;61.57
73952;BME280;62304;47.662;18.324;2022-10-16T16:54:12;101162.69;;;17.12;61.44
73952;BME280;62304;47.662;18.324;2022-10-16T16:57:17;101159.47;;;17.10;61.49
73952;BME280;62304;47.662;18.324;2022-10-16T17:00:21;101164.69;;;17.11;61.05
73952;BME280;62304;47.662;18.324;2022-10-16T17:03:24;101170.69;;;17.06;60.95
73952;BME280;62304;47.662;18.324;2022-10-16T17:06:28;101172.63;;;16.99;61.85
73952;BME280;62304;47.662;18.324;2022-10-16T17:09:35;101176.63;;;16.94;62.23
73952;BME280;62304;47.662;18.324;2022-10-16T17:12:38;101187.00;;;16.87;62.54
73952;BME280;62304;47.662;18.324;2022-10-16T17:15:49;101191.28;;;16.70;62.76
73952;BME280;62304;47.662;18.324;2022-10-16T17:18:53;101193.69;;;16.68;62.59
73952;BME280;62304;47.662;18.324;2022-10-16T17:21:57;101201.12;;;16.43;64.06
73952;BME280;62304;47.662;18.324;2022-10-16T17:25:01;101206.97;;;16.28;65.35
73952;BME280;62304;47.662;18.324;2022-10-16T17:28:08;101200.34;;;15.99;66.29
73952;BME280;62304;47.662;18.324;2022-10-16T17:31:19;101211.94;;;16.01;66.35
73952;BME280;62304;47.662;18.324;2022-10-16T17:34:23;101207.88;;;15.95;65.96
73952;BME280;62304;47.662;18.324;2022-10-16T17:37:27;101213.53;;;16.02;65.54
73952;BME280;62304;47.662;18.324;2022-10-16T17:40:30;101219.06;;;15.95;65.38
73952;BME280;62304;47.662;18.324;2022-10-16T17:43:33;101235.00;;;15.91;64.97
73952;BME280;62304;47.662;18.324;2022-10-16T17:46:36;101229.13;;;16.03;64.75